createdAt,value
2022-11-19T00:01:18.367Z,10.25
2022-11-19T00:03:49.848Z,11.23
2022-11-19T00:06:21.409Z,10.10
2022-11-19T00:08:47.995Z,8.77
2022-11-19T00:11:37.165Z,11.57
2022-11-19T00:14:04.336Z,9.05
2022-11-19T00:16:30.851Z,10.35
2022-11-19T00:18:57.372Z,11.73
2022-11-19T00:21:23.911Z,12.13
2022-11-19T00:23:54.592Z,12.80
2022-11-19T00:26:21.657Z,14.68
2022-11-19T00:28:48.710Z,11.35
2022-11-19T00:31:16.444Z,10.82
2022-11-19T00:33:44.437Z,11.18
2022-11-19T00:36:12.746Z,10.07
2022-11-19T00:38:39.439Z,11.00
2022-11-19T00:41:06.503Z,11.07
2022-11-19T00:43:49.140Z,7.60
2022-11-19T00:46:21.292Z,8.10
2022-11-19T00:48:49.976Z,8.40
2022-11-19T00:51:18.794Z,15.25
2022-11-19T00:53:45.901Z,9.13
2022-11-19T00:56:14.902Z,6.72
2022-11-19T00:58:42.314Z,11.00
2022-11-19T01:01:10.168Z,8.93
2022-11-19T01:03:38.487Z,8.90
2022-11-19T01:06:06.167Z,7.25
2022-11-19T01:08:32.775Z,9.27
2022-11-19T01:11:11.968Z,9.30
2022-11-19T01:13:39.055Z,7.35
2022-11-19T01:16:26.329Z,9.52
2022-11-19T01:18:53.861Z,10.18
2022-11-19T01:21:23.597Z,8.88
2022-11-19T01:23:50.156Z,7.40
2022-11-19T01:26:17.238Z,8.02
2022-11-19T01:28:44.716Z,9.57
2022-11-19T01:31:20.729Z,10.85
2022-11-19T01:33:48.251Z,7.88
2022-11-19T01:36:25.918Z,9.52
2022-11-19T01:38:54.415Z,10.75
2022-11-19T01:41:23.696Z,11.25
2022-11-19T01:43:56.377Z,10.77
2022-11-19T01:46:25.947Z,12.85
2022-11-19T01:48:55.179Z,9.73
2022-11-19T01:51:43.514Z,7.63
2022-11-19T01:54:25.626Z,13.02
2022-11-19T01:56:56.693Z,9.73
2022-11-19T01:59:23.904Z,10.63
2022-11-19T02:01:50.669Z,15.25
2022-11-19T02:04:19.081Z,16.13
2022-11-19T02:06:46.178Z,8.65
2022-11-19T02:09:12.705Z,7.93
2022-11-19T02:12:07.220Z,6.72
2022-11-19T02:14:53.440Z,7.65
2022-11-19T02:17:36.307Z,10.45
2022-11-19T02:20:41.788Z,10.65
2022-11-19T02:23:36.285Z,8.07
2022-11-19T02:26:05.822Z,8.25
2022-11-19T02:28:53.468Z,9.70
2022-11-19T02:31:30.556Z,10.30
2022-11-19T02:34:16.492Z,10.52
2022-11-19T02:37:04.818Z,5.78
2022-11-19T02:39:52.827Z,7.55
2022-11-19T02:42:29.146Z,6.88
2022-11-19T02:45:14.459Z,10.27
2022-11-19T02:47:42.250Z,9.35
2022-11-19T02:50:17.295Z,9.68
2022-11-19T02:52:45.505Z,14.68
2022-11-19T02:55:14.088Z,11.55
2022-11-19T02:57:43.977Z,8.48
2022-11-19T03:00:30.235Z,7.50
2022-11-19T03:03:32.444Z,9.70
2022-11-19T03:06:37.815Z,16.88
2022-11-19T03:09:04.604Z,10.85
2022-11-19T03:11:32.928Z,6.72
2022-11-19T03:14:26.515Z,14.07
2022-11-19T03:17:31.952Z,7.18
2022-11-19T03:20:09.487Z,9.40
2022-11-19T03:23:10.320Z,6.63
2022-11-19T03:25:47.371Z,10.40
2022-11-19T03:28:19.817Z,6.75
2022-11-19T03:30:49.417Z,10.93
2022-11-19T03:33:23.773Z,10.60
2022-11-19T03:35:55.064Z,9.05
2022-11-19T03:38:29.358Z,10.80
2022-11-19T03:40:57.331Z,16.02
2022-11-19T03:43:27.950Z,8.60
2022-11-19T03:45:57.250Z,7.32
2022-11-19T03:48:25.785Z,8.80
2022-11-19T03:50:58.335Z,5.90
2022-11-19T03:53:25.929Z,15.32
2022-11-19T03:55:59.672Z,10.43
2022-11-19T03:58:27.411Z,8.20
2022-11-19T04:00:54.280Z,12.73
2022-11-19T04:03:20.852Z,6.78
2022-11-19T04:05:47.542Z,7.78
2022-11-19T04:08:14.058Z,9.23
2022-11-19T04:10:40.617Z,12.48
2022-11-19T04:13:07.317Z,7.97
2022-11-19T04:15:33.835Z,10.30
2022-11-19T04:18:00.593Z,11.82
2022-11-19T04:20:27.129Z,16.73
2022-11-19T04:22:53.800Z,14.02
2022-11-19T04:25:20.444Z,13.52
2022-11-19T04:27:47.268Z,13.95
2022-11-19T04:30:15.100Z,11.68
2022-11-19T04:32:41.973Z,14.02
2022-11-19T04:35:09.402Z,10.93
2022-11-19T04:37:36.001Z,13.38
2022-11-19T04:40:02.729Z,17.05
2022-11-19T04:42:29.224Z,14.35
2022-11-19T04:44:55.895Z,11.00
2022-11-19T04:47:22.396Z,11.43
2022-11-19T04:49:48.909Z,14.20
2022-11-19T04:52:15.434Z,14.00
2022-11-19T04:54:41.925Z,15.18
2022-11-19T04:57:08.411Z,10.60
2022-11-19T04:59:34.962Z,13.95
2022-11-19T05:02:01.501Z,13.73
2022-11-19T05:04:28.128Z,18.70
2022-11-19T05:06:54.700Z,13.40
2022-11-19T05:09:21.743Z,16.58
2022-11-19T05:11:48.547Z,12.48
2022-11-19T05:14:15.041Z,14.20
2022-11-19T05:16:41.539Z,13.68
2022-11-19T05:19:08.244Z,20.80
2022-11-19T05:21:34.759Z,13.88
2022-11-19T05:24:01.275Z,14.85
2022-11-19T05:26:27.829Z,12.90
2022-11-19T05:28:54.374Z,13.35
2022-11-19T05:31:21.081Z,18.38
2022-11-19T05:33:47.699Z,19.05
2022-11-19T05:36:14.305Z,14.05
2022-11-19T05:38:41.199Z,13.57
2022-11-19T05:41:07.754Z,14.50
2022-11-19T05:43:34.345Z,16.40
2022-11-19T05:46:01.897Z,17.15
2022-11-19T05:48:29.199Z,15.88
2022-11-19T05:50:55.846Z,15.23
2022-11-19T05:53:22.409Z,15.40
2022-11-19T05:55:48.912Z,16.10
2022-11-19T05:58:15.493Z,15.52
2022-11-19T06:00:41.999Z,15.10
2022-11-19T06:03:09.340Z,13.05
2022-11-19T06:05:40.077Z,12.35
2022-11-19T06:08:07.236Z,17.08
2022-11-19T06:10:33.903Z,12.98
2022-11-19T06:13:00.445Z,17.05
2022-11-19T06:15:26.975Z,15.32
2022-11-19T06:17:53.484Z,14.13
2022-11-19T06:20:20.036Z,17.15
2022-11-19T06:22:46.605Z,14.07
2022-11-19T06:25:13.801Z,13.23
2022-11-19T06:27:40.399Z,10.95
2022-11-19T06:30:07.992Z,16.90
2022-11-19T06:32:34.607Z,15.43
2022-11-19T06:35:01.170Z,11.93
2022-11-19T06:37:27.926Z,17.70
2022-11-19T06:39:55.450Z,12.35
2022-11-19T06:42:37.623Z,13.60
2022-11-19T06:47:36.149Z,12.05
2022-11-19T06:50:03.223Z,12.23
2022-11-19T06:52:29.760Z,11.93
2022-11-19T06:54:56.409Z,13.45
2022-11-19T06:57:24.229Z,11.65
2022-11-19T06:59:50.897Z,13.55
2022-11-19T07:02:21.295Z,16.15
2022-11-19T07:04:48.318Z,10.65
2022-11-19T07:07:15.004Z,11.82
2022-11-19T07:09:41.577Z,17.40
2022-11-19T07:12:08.713Z,12.25
2022-11-19T07:14:35.988Z,16.90
2022-11-19T07:17:02.696Z,12.10
2022-11-19T07:19:29.274Z,12.55
2022-11-19T07:21:55.777Z,12.45
2022-11-19T07:24:22.635Z,14.55
2022-11-19T07:26:49.303Z,14.75
2022-11-19T07:29:16.396Z,12.98
2022-11-19T07:31:43.546Z,13.20
2022-11-19T07:34:11.355Z,11.52
2022-11-19T07:36:38.206Z,17.17
2022-11-19T07:39:05.616Z,16.83
2022-11-19T07:41:50.638Z,14.60
2022-11-19T07:44:17.297Z,14.90
2022-11-19T07:46:43.935Z,12.82
2022-11-19T07:49:10.478Z,12.23
2022-11-19T07:51:37.093Z,19.65
2022-11-19T07:54:03.920Z,16.58
2022-11-19T07:56:30.437Z,14.82
2022-11-19T07:59:00.269Z,13.20
2022-11-19T08:01:27.264Z,20.17
2022-11-19T08:03:56.543Z,12.50
2022-11-19T08:06:25.441Z,15.60
2022-11-19T08:08:52.097Z,17.73
2022-11-19T08:11:19.053Z,16.05
2022-11-19T08:13:45.629Z,13.77
2022-11-19T08:16:34.429Z,14.13
2022-11-19T08:19:09.622Z,18.67
2022-11-19T08:21:40.087Z,15.55
2022-11-19T08:24:07.343Z,15.68
2022-11-19T08:26:34.072Z,22.88
2022-11-19T08:29:00.606Z,17.42
2022-11-19T08:31:27.176Z,17.23
2022-11-19T08:33:53.739Z,17.55
2022-11-19T08:36:20.479Z,21.33
2022-11-19T08:38:47.307Z,17.90
2022-11-19T08:41:32.560Z,16.35
2022-11-19T08:44:02.497Z,20.40
2022-11-19T08:46:29.384Z,17.92
2022-11-19T08:48:55.985Z,20.00
2022-11-19T08:51:22.560Z,19.23
2022-11-19T08:53:52.562Z,15.27
2022-11-19T08:56:19.715Z,19.02
2022-11-19T08:58:46.922Z,17.27
2022-11-19T09:01:16.238Z,17.20
2022-11-19T09:03:43.500Z,19.33
2022-11-19T09:06:10.271Z,14.32
2022-11-19T09:08:36.932Z,17.33
2022-11-19T09:11:12.661Z,16.50
2022-11-19T09:13:40.071Z,15.63
2022-11-19T09:16:07.384Z,18.75
2022-11-19T09:18:34.530Z,17.52
2022-11-19T09:21:01.110Z,18.70
2022-11-19T09:23:28.008Z,17.60
2022-11-19T09:26:00.508Z,15.25
2022-11-19T09:28:28.224Z,13.60
2022-11-19T09:30:59.509Z,19.88
2022-11-19T09:33:26.994Z,15.88
2022-11-19T09:35:53.539Z,15.63
2022-11-19T09:38:20.096Z,10.93
2022-11-19T09:40:51.337Z,10.27
2022-11-19T09:43:32.669Z,14.73
2022-11-19T09:46:08.316Z,11.80
2022-11-19T09:48:37.878Z,13.48
2022-11-19T09:51:12.755Z,15.48
2022-11-19T09:53:53.172Z,11.30
2022-11-19T09:56:30.097Z,12.38
2022-11-19T09:58:58.303Z,13.57
2022-11-19T10:01:25.750Z,15.20
2022-11-19T10:03:54.435Z,14.60
2022-11-19T10:06:29.949Z,15.80
2022-11-19T10:09:12.513Z,16.10
2022-11-19T10:11:59.456Z,13.13
2022-11-19T10:14:40.813Z,10.15
2022-11-19T10:17:07.303Z,12.80
2022-11-19T10:19:58.253Z,11.20
2022-11-19T10:22:56.950Z,10.90
2022-11-19T10:25:28.493Z,8.55
2022-11-19T10:28:11.071Z,9.30
2022-11-19T10:30:40.874Z,13.15
2022-11-19T10:33:40.512Z,12.07
2022-11-19T10:36:13.388Z,7.72
2022-11-19T10:39:09.228Z,10.20
2022-11-19T10:41:41.805Z,10.80
2022-11-19T10:44:40.501Z,10.85
2022-11-19T10:47:23.009Z,9.38
2022-11-19T10:49:54.445Z,8.68
2022-11-19T10:52:29.910Z,13.48
2022-11-19T10:55:05.566Z,10.43
2022-11-19T10:57:33.156Z,11.68
2022-11-19T11:00:01.175Z,9.20
2022-11-19T11:02:59.637Z,9.43
2022-11-19T11:05:26.133Z,7.35
2022-11-19T11:07:57.925Z,7.90
2022-11-19T11:10:32.574Z,10.80
2022-11-19T11:13:26.662Z,8.73
2022-11-19T11:15:54.426Z,12.98
2022-11-19T11:18:27.618Z,11.77
2022-11-19T11:20:56.386Z,10.43
2022-11-19T11:23:26.116Z,9.30
2022-11-19T11:26:05.105Z,13.13
2022-11-19T11:28:31.799Z,8.35
2022-11-19T11:31:09.473Z,9.13
2022-11-19T11:33:41.195Z,9.68
2022-11-19T11:36:19.735Z,11.85
2022-11-19T11:38:49.506Z,9.60
2022-11-19T11:44:18.726Z,13.65
2022-11-19T11:46:47.893Z,8.60
2022-11-19T11:49:27.082Z,9.95
2022-11-19T11:52:01.069Z,13.30
2022-11-19T11:54:27.774Z,10.82
2022-11-19T11:56:54.320Z,9.93
2022-11-19T11:59:25.992Z,11.10
2022-11-19T12:02:07.856Z,11.57
2022-11-19T12:04:35.779Z,12.15
2022-11-19T12:07:20.441Z,9.65
2022-11-19T12:10:03.462Z,12.73
2022-11-19T12:12:43.635Z,13.63
2022-11-19T12:15:21.800Z,9.57
2022-11-19T12:18:06.956Z,9.10
2022-11-19T12:20:42.826Z,8.85
2022-11-19T12:23:30.935Z,8.23
2022-11-19T12:26:17.405Z,8.85
2022-11-19T12:29:12.345Z,8.00
2022-11-19T12:32:15.508Z,10.32
2022-11-19T12:34:53.715Z,8.43
2022-11-19T12:37:41.414Z,9.95
2022-11-19T12:40:25.147Z,6.43
2022-11-19T12:43:39.392Z,9.23
2022-11-19T12:46:12.172Z,13.73
2022-11-19T12:48:59.929Z,10.60
2022-11-19T12:51:52.501Z,14.02
2022-11-19T12:54:41.377Z,8.75
2022-11-19T12:57:45.541Z,8.32
2022-11-19T13:00:16.306Z,10.63
2022-11-19T13:03:08.951Z,9.23
2022-11-19T13:06:00.476Z,9.50
2022-11-19T13:08:49.622Z,10.70
2022-11-19T13:11:24.101Z,8.60
2022-11-19T13:14:13.353Z,9.43
2022-11-19T13:16:42.073Z,11.45
2022-11-19T13:19:28.812Z,7.95
2022-11-19T13:22:16.574Z,12.60
2022-11-19T13:24:49.436Z,9.48
2022-11-19T13:27:23.200Z,12.63
2022-11-19T13:30:04.413Z,6.40
2022-11-19T13:32:46.584Z,8.43
2022-11-19T13:37:45.568Z,8.55
2022-11-19T13:40:30.872Z,9.35
2022-11-19T13:43:31.560Z,9.55
2022-11-19T13:46:23.868Z,11.40
2022-11-19T13:48:53.377Z,9.88
2022-11-19T13:51:43.001Z,10.02
2022-11-19T13:54:19.703Z,9.02
2022-11-19T13:56:49.023Z,11.85
2022-11-19T13:59:26.969Z,12.07
2022-11-19T14:02:13.960Z,13.43
2022-11-19T14:05:00.580Z,10.52
2022-11-19T14:08:07.651Z,8.73
2022-11-19T14:10:37.488Z,13.98
2022-11-19T14:13:12.998Z,12.23
2022-11-19T14:16:09.849Z,13.45
2022-11-19T14:19:05.532Z,13.75
2022-11-19T14:21:52.380Z,9.55
2022-11-19T14:24:43.397Z,10.63
2022-11-19T14:27:29.285Z,11.95
2022-11-19T14:30:10.663Z,13.63
2022-11-19T14:32:47.039Z,9.50
2022-11-19T14:35:21.700Z,15.05
2022-11-19T14:37:52.005Z,12.52
2022-11-19T14:40:25.362Z,13.18
2022-11-19T14:43:19.305Z,11.00
2022-11-19T14:46:00.898Z,11.43
2022-11-19T14:48:31.814Z,11.13
2022-11-19T14:51:07.373Z,16.27
2022-11-19T14:53:37.536Z,11.35
2022-11-19T14:56:15.550Z,11.05
2022-11-19T14:59:14.297Z,13.15
2022-11-19T15:02:01.855Z,15.13
2022-11-19T15:05:01.020Z,15.15
2022-11-19T15:07:40.273Z,13.75
2022-11-19T15:10:09.993Z,13.88
2022-11-19T15:12:45.542Z,11.13
2022-11-19T15:15:20.922Z,11.45
2022-11-19T15:18:13.984Z,12.02
2022-11-19T15:21:11.277Z,11.18
2022-11-19T15:23:49.253Z,12.32
2022-11-19T15:26:18.780Z,10.25
2022-11-19T15:28:48.290Z,14.30
2022-11-19T15:31:28.977Z,11.25
2022-11-19T15:35:03.921Z,14.23
2022-11-19T15:37:44.033Z,13.27
2022-11-19T15:40:16.934Z,13.43
2022-11-19T15:42:51.876Z,12.68
2022-11-19T15:45:22.340Z,14.25
2022-11-19T15:48:09.714Z,12.10
2022-11-19T15:50:37.295Z,14.63
2022-11-19T15:53:24.309Z,19.35
2022-11-19T15:56:03.150Z,14.90
2022-11-19T15:58:39.620Z,16.70
2022-11-19T16:01:09.005Z,17.45
2022-11-19T16:03:39.185Z,15.82
2022-11-19T16:06:16.251Z,17.23
2022-11-19T16:08:45.537Z,15.63
2022-11-19T16:11:36.880Z,17.30
2022-11-19T16:14:22.376Z,18.05
2022-11-19T16:17:10.367Z,14.50
2022-11-19T16:19:36.870Z,16.65
2022-11-19T16:22:05.057Z,14.30
2022-11-19T16:24:50.378Z,14.05
2022-11-19T16:27:23.875Z,16.05
2022-11-19T16:29:51.237Z,19.35
2022-11-19T16:32:20.302Z,22.35
2022-11-19T16:34:46.991Z,17.27
2022-11-19T16:37:15.643Z,16.15
2022-11-19T16:39:48.438Z,13.48
2022-11-19T16:42:18.594Z,15.50
2022-11-19T16:44:50.962Z,22.00
2022-11-19T16:47:22.595Z,15.68
2022-11-19T16:49:49.046Z,18.50
2022-11-19T16:52:34.435Z,18.05
2022-11-19T16:55:02.529Z,17.05
2022-11-19T16:57:30.563Z,18.70
2022-11-19T17:00:17.481Z,16.73
2022-11-19T17:02:44.968Z,19.20
2022-11-19T17:05:15.999Z,14.27
2022-11-19T17:07:46.342Z,12.65
2022-11-19T17:10:12.949Z,19.80
2022-11-19T17:12:57.850Z,20.45
2022-11-19T17:15:44.679Z,17.45
2022-11-19T17:18:44.260Z,24.73
2022-11-19T17:21:24.926Z,16.95
2022-11-19T17:23:51.910Z,18.90
2022-11-19T17:26:22.435Z,27.45
2022-11-19T17:28:52.206Z,20.50
2022-11-19T17:31:23.440Z,18.98
2022-11-19T17:34:04.946Z,22.13
2022-11-19T17:36:31.556Z,22.83
2022-11-19T17:38:58.079Z,21.48
2022-11-19T17:41:45.497Z,19.10
2022-11-19T17:44:31.870Z,24.00
2022-11-19T17:46:59.188Z,22.00
2022-11-19T17:49:25.690Z,19.55
2022-11-19T17:51:52.597Z,25.48
2022-11-19T17:54:19.718Z,21.83
2022-11-19T17:56:46.759Z,18.98
2022-11-19T17:59:13.471Z,22.70
2022-11-19T18:01:40.007Z,20.05
2022-11-19T18:04:06.534Z,21.48
2022-11-19T18:06:33.759Z,21.70
2022-11-19T18:09:00.301Z,18.15
2022-11-19T18:11:26.919Z,24.35
2022-11-19T18:13:57.180Z,20.40
2022-11-19T18:16:26.376Z,22.85
2022-11-19T18:18:53.649Z,21.08
2022-11-19T18:21:22.106Z,18.70
2022-11-19T18:23:50.623Z,25.42
2022-11-19T18:26:22.429Z,22.52
2022-11-19T18:28:49.389Z,23.05
2022-11-19T18:31:18.680Z,18.48
2022-11-19T18:33:47.824Z,26.08
2022-11-19T18:36:15.524Z,22.77
2022-11-19T18:38:42.741Z,22.83
2022-11-19T18:41:14.719Z,18.27
2022-11-19T18:44:00.407Z,24.30
2022-11-19T18:46:27.041Z,21.27
2022-11-19T18:48:56.753Z,20.55
2022-11-19T18:51:24.261Z,22.02
2022-11-19T18:53:50.821Z,21.58
2022-11-19T18:56:18.991Z,25.58
2022-11-19T18:58:46.026Z,23.50
2022-11-19T19:01:13.170Z,30.45
2022-11-19T19:03:39.781Z,22.42
2022-11-19T19:06:09.017Z,25.48
2022-11-19T19:08:36.238Z,26.63
2022-11-19T19:11:24.784Z,28.83
2022-11-19T19:13:51.841Z,27.17
2022-11-19T19:16:18.757Z,26.08
2022-11-19T19:18:45.291Z,25.30
2022-11-19T19:21:13.743Z,28.45
2022-11-19T19:23:40.815Z,21.67
2022-11-19T19:26:08.320Z,30.10
2022-11-19T19:28:36.272Z,28.13
2022-11-19T19:31:04.247Z,28.77
2022-11-19T19:33:31.144Z,27.95
2022-11-19T19:35:57.759Z,25.77
2022-11-19T19:38:24.669Z,25.75
2022-11-19T19:40:51.204Z,25.20
2022-11-19T19:43:17.736Z,26.83
2022-11-19T19:45:44.332Z,28.20
2022-11-19T19:48:11.021Z,20.48
2022-11-19T19:50:37.615Z,26.88
2022-11-19T19:53:04.847Z,26.50
2022-11-19T19:55:31.434Z,25.42
2022-11-19T19:57:58.031Z,24.80
2022-11-19T20:00:24.683Z,26.05
2022-11-19T20:02:51.260Z,22.73
2022-11-19T20:05:17.780Z,21.23
2022-11-19T20:07:44.356Z,22.73
2022-11-19T20:10:10.965Z,22.95
2022-11-19T20:12:55.774Z,21.77
2022-11-19T20:15:22.357Z,25.30
2022-11-19T20:17:48.895Z,26.75
2022-11-19T20:20:15.467Z,21.60
2022-11-19T20:22:42.004Z,23.77
2022-11-19T20:25:08.602Z,22.98
2022-11-19T20:27:35.202Z,27.42
2022-11-19T20:30:01.723Z,22.05
2022-11-19T20:32:28.406Z,23.27
2022-11-19T20:34:56.485Z,23.00
2022-11-19T20:37:23.054Z,23.83
2022-11-19T20:39:49.610Z,32.83
2022-11-19T20:42:34.643Z,26.75
2022-11-19T20:45:01.378Z,27.70
2022-11-19T20:47:27.934Z,27.88
2022-11-19T20:49:54.440Z,26.55
2022-11-19T20:52:23.011Z,28.80
2022-11-19T20:54:51.196Z,26.08
2022-11-19T20:57:18.848Z,24.33
2022-11-19T20:59:45.663Z,27.67
2022-11-19T21:02:12.447Z,25.05
2022-11-19T21:04:39.096Z,26.85
2022-11-19T21:07:06.079Z,21.80
2022-11-19T21:09:33.529Z,26.55
2022-11-19T21:12:00.132Z,26.23
2022-11-19T21:14:26.798Z,27.15
2022-11-19T21:16:53.851Z,25.67
2022-11-19T21:19:20.824Z,25.33
2022-11-19T21:21:47.682Z,24.95
2022-11-19T21:24:14.684Z,29.10
2022-11-19T21:26:41.572Z,25.20
2022-11-19T21:29:08.239Z,23.08
2022-11-19T21:31:39.864Z,26.33
2022-11-19T21:34:09.006Z,24.77
2022-11-19T21:36:36.642Z,27.38
2022-11-19T21:39:04.498Z,24.77
2022-11-19T21:41:31.151Z,23.42
2022-11-19T21:43:57.732Z,20.40
2022-11-19T21:46:24.305Z,21.73
2022-11-19T21:48:50.917Z,21.67
2022-11-19T21:51:22.979Z,22.75
2022-11-19T21:53:54.088Z,19.27
2022-11-19T21:56:20.634Z,21.08
2022-11-19T21:58:47.138Z,18.38
2022-11-19T22:01:13.919Z,21.90
2022-11-19T22:03:40.568Z,19.33
2022-11-19T22:06:09.594Z,16.63
2022-11-19T22:08:38.572Z,17.88
2022-11-19T22:11:25.928Z,18.38
2022-11-19T22:13:53.249Z,14.45
2022-11-19T22:16:20.323Z,18.88
2022-11-19T22:18:47.118Z,20.55
2022-11-19T22:21:13.939Z,17.33
2022-11-19T22:23:41.024Z,19.60
2022-11-19T22:26:09.587Z,21.88
2022-11-19T22:28:36.736Z,20.02
2022-11-19T22:31:03.544Z,22.90
2022-11-19T22:33:40.340Z,22.70
2022-11-19T22:36:10.341Z,23.00
2022-11-19T22:38:38.690Z,21.13
2022-11-19T22:41:08.464Z,23.08
2022-11-19T22:43:35.959Z,19.95
2022-11-19T22:46:02.465Z,21.17
2022-11-19T22:48:30.508Z,19.30
2022-11-19T22:50:57.465Z,23.65
2022-11-19T22:53:24.512Z,20.00
2022-11-19T22:55:51.572Z,23.35
2022-11-19T22:58:18.095Z,20.70
2022-11-19T23:00:49.633Z,25.60
2022-11-19T23:03:16.623Z,20.23
2022-11-19T23:05:49.875Z,22.15
2022-11-19T23:08:16.482Z,20.45
2022-11-19T23:10:43.288Z,22.05
2022-11-19T23:13:30.736Z,20.67
2022-11-19T23:16:16.760Z,25.00
2022-11-19T23:18:53.147Z,23.88
2022-11-19T23:21:22.486Z,20.38
2022-11-19T23:23:49.807Z,18.70
2022-11-19T23:26:19.070Z,22.70
2022-11-19T23:28:45.947Z,24.27
2022-11-19T23:31:18.573Z,20.67
2022-11-19T23:33:45.980Z,21.20
2022-11-19T23:36:18.108Z,25.40
2022-11-19T23:38:45.313Z,18.77
2022-11-19T23:41:13.759Z,22.50
2022-11-19T23:43:40.287Z,20.23
2022-11-19T23:46:08.124Z,23.00
2022-11-19T23:48:35.764Z,19.73
2022-11-19T23:51:07.297Z,19.40
2022-11-19T23:53:34.025Z,16.02
2022-11-19T23:56:01.375Z,20.05
2022-11-19T23:58:28.453Z,17.42
